Time;durP1;ratioP1;P1;durP2;ratioP2;P2;SDS_P1;SDS_P2;PMS_P1;PMS_P2;Temp;Humidity;BMP_temperature;BMP_pressure;BME280_temperature;BME280_humidity;BME280_pressure;Samples;Min_cycle;Max_cycle;Signal;HPM_P1;HPM_P2
2023/08/20 00:01:08;;;;;;;16.20;12.57;;;25.60;78.40;;;;;;5036633;28;20476;-78
2023/08/20 00:03:36;;;;;;;19.07;13.57;;;25.50;78.40;;;;;;5018818;28;20558;-78
2023/08/20 00:06:08;;;;;;;16.53;12.53;;;25.50;78.50;;;;;;5020847;28;20544;-78
2023/08/20 00:08:36;;;;;;;14.70;12.47;;;25.50;78.50;;;;;;5049573;28;20492;-79
2023/08/20 00:11:05;;;;;;;17.40;13.50;;;25.50;78.40;;;;;;5016333;28;20966;-79
2023/08/20 00:13:34;;;;;;;19.60;12.23;;;25.50;78.50;;;;;;5025399;28;20565;-79
2023/08/20 00:16:03;;;;;;;17.27;12.40;;;25.50;78.50;;;;;;5018237;28;20488;-79
2023/08/20 00:18:33;;;;;;;17.27;12.73;;;25.50;78.60;;;;;;5025974;28;20451;-78
2023/08/20 00:21:06;;;;;;;17.13;12.80;;;25.40;78.60;;;;;;5023711;28;20483;-78
2023/08/20 00:23:35;;;;;;;13.67;11.97;;;25.40;78.60;;;;;;5026341;28;20507;-78
2023/08/20 00:26:04;;;;;;;19.03;13.73;;;25.40;78.60;;;;;;5024193;28;20513;-78
2023/08/20 00:28:33;;;;;;;16.40;13.60;;;25.40;78.60;;;;;;5027802;28;20474;-79
2023/08/20 00:31:02;;;;;;;19.13;13.03;;;25.40;78.80;;;;;;5043387;28;20885;-78
2023/08/20 00:33:31;;;;;;;18.77;13.50;;;25.40;78.80;;;;;;5022819;28;20491;-78
2023/08/20 00:35:59;;;;;;;19.07;12.73;;;25.30;78.80;;;;;;5026656;28;20551;-79
2023/08/20 00:38:27;;;;;;;16.57;12.90;;;25.30;78.80;;;;;;5030304;28;20517;-79
2023/08/20 00:40:55;;;;;;;18.80;12.40;;;25.30;78.80;;;;;;5026504;28;20471;-79
2023/08/20 00:43:23;;;;;;;21.07;12.67;;;25.30;78.90;;;;;;5021313;28;20479;-79
2023/08/20 00:45:52;;;;;;;17.10;13.10;;;25.30;78.90;;;;;;5031469;28;20493;-78
2023/08/20 00:48:20;;;;;;;15.40;11.43;;;25.30;78.90;;;;;;5024861;28;20470;-77
2023/08/20 00:50:49;;;;;;;17.70;12.13;;;25.30;79.00;;;;;;5030140;28;20459;-78
2023/08/20 00:53:18;;;;;;;22.70;13.60;;;25.30;79.00;;;;;;5028369;28;20464;-79
2023/08/20 00:55:47;;;;;;;18.57;13.90;;;25.30;79.00;;;;;;5029988;28;20473;-79
2023/08/20 00:58:15;;;;;;;18.47;14.37;;;25.30;79.00;;;;;;5031041;28;20471;-79
2023/08/20 01:00:43;;;;;;;18.00;14.03;;;25.20;79.10;;;;;;5025484;28;20562;-79
2023/08/20 01:03:11;;;;;;;21.80;13.83;;;25.20;79.20;;;;;;5030618;28;20475;-79
2023/08/20 01:05:47;;;;;;;17.50;13.10;;;25.20;79.30;;;;;;5021910;28;20448;-78
2023/08/20 01:08:29;;;;;;;15.53;12.47;;;25.20;79.30;;;;;;5033692;28;20548;-80
2023/08/20 01:11:07;;;;;;;17.80;13.20;;;25.20;79.30;;;;;;5028038;28;20629;-79
2023/08/20 01:13:35;;;;;;;15.53;12.47;;;25.20;79.40;;;;;;5029739;28;20485;-80
2023/08/20 01:16:03;;;;;;;16.70;13.30;;;25.10;79.30;;;;;;5031972;28;20542;-79
2023/08/20 01:18:32;;;;;;;15.50;12.77;;;25.10;79.40;;;;;;5028866;28;20448;-79
2023/08/20 01:21:20;;;;;;;14.30;12.47;;;25.10;79.50;;;;;;5029692;28;20478;-79
2023/08/20 01:24:17;;;;;;;18.30;12.83;;;25.10;79.50;;;;;;5034268;28;20520;-79
2023/08/20 01:27:04;;;;;;;20.77;12.30;;;25.10;79.40;;;;;;5045231;28;20975;-79
2023/08/20 01:29:35;;;;;;;20.67;13.50;;;25.10;79.50;;;;;;5027906;28;20467;-79
2023/08/20 01:32:06;;;;;;;20.33;12.20;;;25.10;79.60;;;;;;5029297;28;20467;-79
2023/08/20 01:34:35;;;;;;;16.77;13.23;;;25.10;79.60;;;;;;5026378;28;21077;-78
2023/08/20 01:41:18;;;;;;;18.93;12.13;;;25.20;79.60;;;;;;5024775;28;20446;-78
2023/08/20 01:43:47;;;;;;;16.07;12.30;;;25.20;79.50;;;;;;5030656;28;20954;-79
2023/08/20 01:46:17;;;;;;;19.10;13.10;;;25.20;79.40;;;;;;5020240;28;20573;-79
2023/08/20 01:48:45;;;;;;;16.07;13.13;;;25.10;79.40;;;;;;5026494;28;20479;-78
2023/08/20 01:51:13;;;;;;;16.77;12.67;;;25.10;79.40;;;;;;5027416;28;20461;-78
2023/08/20 01:53:41;;;;;;;16.87;12.87;;;25.10;79.40;;;;;;5023313;28;20453;-78
2023/08/20 01:56:12;;;;;;;16.57;12.87;;;25.10;79.40;;;;;;5019667;28;20467;-78
2023/08/20 01:58:43;;;;;;;20.03;12.30;;;25.10;79.40;;;;;;5049368;28;20455;-79
2023/08/20 02:01:11;;;;;;;16.60;12.63;;;25.10;79.40;;;;;;5019799;28;20546;-78
2023/08/20 02:03:40;;;;;;;16.70;13.03;;;25.10;79.30;;;;;;5022497;28;21248;-79
2023/08/20 02:06:09;;;;;;;17.13;13.43;;;25.00;79.40;;;;;;5026570;28;20531;-79
2023/08/20 02:08:36;;;;;;;18.60;13.10;;;25.00;79.30;;;;;;5020980;28;20567;-79
2023/08/20 02:11:05;;;;;;;18.13;12.37;;;25.00;79.30;;;;;;5025685;28;20480;-79
2023/08/20 02:13:34;;;;;;;18.90;12.50;;;25.00;79.30;;;;;;5030263;28;21068;-80
2023/08/20 02:16:03;;;;;;;18.77;14.07;;;24.90;79.30;;;;;;5028885;28;20463;-79
2023/08/20 02:18:31;;;;;;;25.23;14.40;;;24.90;79.30;;;;;;5030830;28;20460;-79
2023/08/20 02:21:02;;;;;;;15.10;12.40;;;24.90;79.30;;;;;;5047544;28;20491;-78
2023/08/20 02:23:30;;;;;;;16.70;13.33;;;24.90;79.30;;;;;;5027643;28;20491;-79
2023/08/20 02:25:59;;;;;;;20.17;13.30;;;24.80;79.30;;;;;;5023420;28;20467;-78
2023/08/20 02:28:29;;;;;;;23.50;15.10;;;24.80;79.30;;;;;;5015480;28;20473;-78
2023/08/20 02:30:59;;;;;;;20.37;13.90;;;24.80;79.40;;;;;;5024325;28;21211;-78
2023/08/20 02:33:28;;;;;;;16.00;13.47;;;24.80;79.50;;;;;;5022352;28;20988;-77
2023/08/20 02:35:55;;;;;;;18.40;13.33;;;24.80;79.60;;;;;;5022824;28;20491;-78
2023/08/20 02:38:25;;;;;;;16.23;13.47;;;24.80;79.60;;;;;;5022632;28;20478;-79
2023/08/20 02:40:53;;;;;;;17.13;12.47;;;24.80;79.60;;;;;;5024226;28;21276;-77
2023/08/20 02:43:21;;;;;;;20.40;13.03;;;24.80;79.60;;;;;;5046139;28;20469;-78
2023/08/20 02:45:49;;;;;;;18.80;13.40;;;24.70;79.60;;;;;;5024923;28;20988;-78
2023/08/20 02:48:19;;;;;;;14.70;12.50;;;24.70;79.60;;;;;;5018784;28;20841;-78
2023/08/20 02:50:47;;;;;;;15.67;12.47;;;24.70;79.50;;;;;;5026359;28;20517;-79
2023/08/20 02:53:15;;;;;;;17.27;11.97;;;24.70;79.60;;;;;;5017348;28;20543;-79
2023/08/20 02:55:44;;;;;;;19.50;11.30;;;24.70;79.50;;;;;;5018714;28;20966;-79
2023/08/20 02:58:12;;;;;;;15.70;12.20;;;24.60;79.50;;;;;;5020397;28;20819;-79
2023/08/20 03:00:40;;;;;;;16.33;12.20;;;24.60;79.50;;;;;;5036209;28;20841;-78
2023/08/20 03:03:09;;;;;;;18.07;12.60;;;24.50;79.40;;;;;;5023632;28;20541;-78
2023/08/20 03:05:39;;;;;;;15.07;12.23;;;24.50;79.50;;;;;;5024567;28;20462;-78
2023/08/20 03:08:07;;;;;;;13.83;11.50;;;24.50;79.40;;;;;;5021208;28;20525;-78
2023/08/20 03:10:35;;;;;;;14.70;12.50;;;24.40;79.50;;;;;;5022357;28;20558;-78
2023/08/20 03:13:05;;;;;;;17.70;12.37;;;24.40;79.50;;;;;;5018384;28;21061;-78
2023/08/20 03:15:34;;;;;;;18.03;13.13;;;24.40;79.50;;;;;;5050259;28;21005;-78
2023/08/20 03:18:04;;;;;;;16.10;12.67;;;24.40;79.40;;;;;;5027059;28;20505;-79
2023/08/20 03:20:32;;;;;;;19.03;12.40;;;24.30;79.50;;;;;;5026598;28;20492;-79
2023/08/20 03:23:00;;;;;;;16.07;13.20;;;24.30;79.50;;;;;;5025695;28;20466;-78
2023/08/20 03:25:29;;;;;;;14.60;12.70;;;24.30;79.50;;;;;;5028000;28;20533;-79
2023/08/20 03:27:57;;;;;;;16.03;12.00;;;24.30;79.50;;;;;;5031724;28;20551;-78
2023/08/20 03:30:27;;;;;;;14.73;11.87;;;24.30;79.50;;;;;;5041144;28;20484;-78
2023/08/20 03:32:55;;;;;;;15.17;11.43;;;24.30;79.50;;;;;;5022632;28;20974;-78
2023/08/20 03:35:24;;;;;;;18.53;13.17;;;24.30;79.50;;;;;;5022684;28;21011;-78
2023/08/20 03:37:53;;;;;;;14.43;12.20;;;24.30;79.40;;;;;;5023476;28;20978;-79
2023/08/20 03:40:21;;;;;;;17.93;12.00;;;24.30;79.40;;;;;;5022588;28;20472;-80
2023/08/20 03:42:49;;;;;;;14.47;12.23;;;24.30;79.30;;;;;;5022948;28;20982;-78
2023/08/20 03:45:18;;;;;;;16.73;12.60;;;24.20;79.10;;;;;;5022253;28;20573;-79
2023/08/20 03:47:47;;;;;;;19.77;12.33;;;24.20;79.20;;;;;;5021679;28;20459;-79
2023/08/20 03:50:17;;;;;;;18.10;11.60;;;24.20;79.20;;;;;;5026379;28;20468;-79
2023/08/20 03:52:45;;;;;;;19.07;13.23;;;24.10;79.20;;;;;;5055619;28;20462;-79
2023/08/20 03:55:14;;;;;;;14.90;12.20;;;24.10;79.30;;;;;;5029362;28;21245;-78
2023/08/20 03:57:42;;;;;;;16.00;12.90;;;24.10;79.30;;;;;;5022430;28;20547;-78
2023/08/20 04:00:12;;;;;;;18.97;12.97;;;24.10;79.30;;;;;;5021313;28;20494;-79
2023/08/20 04:02:42;;;;;;;16.60;12.07;;;24.10;79.30;;;;;;5022672;28;20523;-78
2023/08/20 04:05:12;;;;;;;17.50;13.50;;;24.10;79.20;;;;;;5026223;28;20463;-79
2023/08/20 04:07:40;;;;;;;24.83;13.30;;;24.00;79.30;;;;;;5021022;28;20518;-79
2023/08/20 04:10:09;;;;;;;16.77;13.70;;;23.90;79.30;;;;;;5024082;28;20829;-79
2023/08/20 04:12:37;;;;;;;19.50;14.20;;;23.90;79.50;;;;;;5013118;28;20473;-78
2023/08/20 04:15:07;;;;;;;17.87;14.00;;;23.90;79.50;;;;;;5018435;28;20493;-79
2023/08/20 04:17:35;;;;;;;17.33;12.87;;;23.90;79.60;;;;;;5022105;28;20496;-78
2023/08/20 04:20:05;;;;;;;15.93;12.20;;;23.90;79.60;;;;;;5022172;28;20519;-79
2023/08/20 04:22:34;;;;;;;21.93;12.87;;;23.90;79.60;;;;;;5021955;28;20983;-78
2023/08/20 04:25:04;;;;;;;16.13;13.30;;;23.90;79.60;;;;;;5022971;28;20459;-79
2023/08/20 04:27:33;;;;;;;16.57;11.83;;;23.90;79.60;;;;;;5028553;28;20514;-79
2023/08/20 04:30:04;;;;;;;16.67;12.40;;;23.90;79.50;;;;;;5025714;28;21072;-78
2023/08/20 04:32:33;;;;;;;16.67;13.57;;;23.90;79.40;;;;;;5023657;28;20553;-80
2023/08/20 04:35:02;;;;;;;14.70;12.50;;;23.90;79.30;;;;;;5024415;28;20547;-78
2023/08/20 04:37:31;;;;;;;19.20;13.97;;;23.90;79.20;;;;;;5027308;28;20459;-79
2023/08/20 04:40:05;;;;;;;18.57;14.10;;;23.90;79.30;;;;;;5026040;28;20459;-79
2023/08/20 04:42:33;;;;;;;17.13;13.67;;;23.90;79.30;;;;;;5020839;28;20467;-79
2023/08/20 04:45:01;;;;;;;19.53;13.30;;;23.90;79.30;;;;;;5025147;28;20468;-79
2023/08/20 04:47:30;;;;;;;19.37;14.07;;;23.80;79.20;;;;;;5028747;28;20463;-80
2023/08/20 04:49:58;;;;;;;20.03;15.07;;;23.80;79.10;;;;;;5023249;28;20555;-79
2023/08/20 04:52:28;;;;;;;18.60;13.90;;;23.70;79.20;;;;;;5039690;28;20976;-79
2023/08/20 04:54:56;;;;;;;19.90;14.70;;;23.70;79.30;;;;;;5024514;28;20495;-78
2023/08/20 04:57:25;;;;;;;22.83;14.80;;;23.70;79.40;;;;;;5024980;28;20516;-79
2023/08/20 04:59:53;;;;;;;20.63;14.83;;;23.80;79.50;;;;;;5026704;28;20507;-78
2023/08/20 05:02:37;;;;;;;22.83;13.20;;;23.80;79.70;;;;;;5020881;28;20476;-78
2023/08/20 05:05:07;;;;;;;17.47;12.63;;;24.00;79.90;;;;;;5026754;28;20521;-79
2023/08/20 05:07:35;;;;;;;17.97;13.47;;;24.30;79.80;;;;;;5028445;28;20474;-79
2023/08/20 05:10:03;;;;;;;18.73;15.20;;;24.70;79.40;;;;;;5022331;28;20478;-79
2023/08/20 05:12:32;;;;;;;24.33;14.77;;;25.10;78.70;;;;;;5029143;28;20542;-79
2023/08/20 05:15:01;;;;;;;18.97;12.87;;;25.60;78.00;;;;;;5026157;28;20478;-78
2023/08/20 05:17:29;;;;;;;18.53;13.07;;;26.00;77.50;;;;;;5028013;28;20525;-81
2023/08/20 05:19:58;;;;;;;15.63;11.73;;;26.50;77.00;;;;;;5026921;28;20563;-79
2023/08/20 05:22:27;;;;;;;17.27;12.90;;;26.90;76.40;;;;;;5028113;28;20456;-79
2023/08/20 05:24:55;;;;;;;13.27;11.60;;;27.40;75.80;;;;;;5023826;28;20451;-78
2023/08/20 05:27:23;;;;;;;17.00;14.07;;;27.90;75.00;;;;;;5024509;28;20558;-79
2023/08/20 05:29:53;;;;;;;15.50;13.37;;;28.30;74.20;;;;;;5026602;28;20482;-79
2023/08/20 05:32:21;;;;;;;17.80;12.30;;;28.80;73.40;;;;;;5023374;28;20857;-78
2023/08/20 05:34:50;;;;;;;19.80;13.80;;;29.20;72.70;;;;;;5022503;28;20454;-79
2023/08/20 05:37:17;;;;;;;17.90;14.20;;;29.60;72.10;;;;;;5021219;28;20547;-80
2023/08/20 05:39:46;;;;;;;16.27;13.47;;;29.90;71.40;;;;;;5019567;28;20484;-79
2023/08/20 05:42:15;;;;;;;17.00;13.50;;;30.30;70.70;;;;;;5023254;28;20483;-78
2023/08/20 05:44:51;;;;;;;18.30;12.93;;;30.80;70.00;;;;;;5022756;28;21005;-78
2023/08/20 05:47:25;;;;;;;17.07;14.87;;;31.30;69.20;;;;;;5022185;28;21131;-79
2023/08/20 05:49:54;;;;;;;18.87;13.47;;;31.80;68.00;;;;;;5018642;28;20488;-80
2023/08/20 05:52:22;;;;;;;18.90;13.60;;;32.20;67.00;;;;;;5022729;28;20464;-77
2023/08/20 05:54:50;;;;;;;16.00;12.43;;;32.60;66.30;;;;;;5026282;28;20444;-80
2023/08/20 05:57:18;;;;;;;14.80;12.90;;;32.70;64.80;;;;;;5021874;28;20476;-80
2023/08/20 05:59:46;;;;;;;17.43;14.07;;;32.00;64.20;;;;;;5022382;28;20467;-79
2023/08/20 06:02:18;;;;;;;19.97;14.53;;;31.00;64.80;;;;;;5037122;28;20483;-80
2023/08/20 06:04:47;;;;;;;19.67;16.07;;;30.00;66.00;;;;;;5024579;28;20474;-79
2023/08/20 06:07:15;;;;;;;19.27;15.67;;;29.10;67.30;;;;;;5028159;28;20824;-80
2023/08/20 06:09:43;;;;;;;17.40;15.53;;;28.50;68.40;;;;;;5022909;28;20470;-79
2023/08/20 06:12:12;;;;;;;21.50;14.93;;;28.00;69.30;;;;;;5024059;28;20543;-79
2023/08/20 06:14:40;;;;;;;18.93;15.13;;;27.60;70.10;;;;;;5023956;28;20502;-79
2023/08/20 06:17:08;;;;;;;21.30;14.43;;;27.30;70.90;;;;;;5026161;28;20449;-78
2023/08/20 06:19:36;;;;;;;18.20;15.13;;;27.00;71.60;;;;;;5020440;28;20463;-78
2023/08/20 06:22:07;;;;;;;19.17;14.40;;;26.90;72.20;;;;;;5025742;28;20453;-78
2023/08/20 06:24:35;;;;;;;15.60;13.67;;;26.70;72.70;;;;;;5021432;28;20463;-79
2023/08/20 06:27:03;;;;;;;16.63;14.53;;;26.60;73.10;;;;;;5025170;28;20471;-79
2023/08/20 06:29:31;;;;;;;19.43;16.30;;;26.50;73.50;;;;;;5024551;28;20466;-78
2023/08/20 06:31:59;;;;;;;22.27;15.73;;;26.40;73.80;;;;;;5015294;28;20554;-77
2023/08/20 06:34:27;;;;;;;17.50;15.70;;;26.30;74.30;;;;;;5016534;28;21021;-78
2023/08/20 06:36:55;;;;;;;18.53;15.60;;;26.20;74.60;;;;;;5019611;28;20453;-77
2023/08/20 06:39:24;;;;;;;20.23;13.90;;;26.20;74.90;;;;;;5017235;28;20452;-78
2023/08/20 06:41:52;;;;;;;17.77;13.50;;;26.10;75.40;;;;;;5019577;28;20512;-78
2023/08/20 06:44:21;;;;;;;18.13;13.27;;;26.00;75.60;;;;;;5032261;28;20475;-79
2023/08/20 06:46:49;;;;;;;20.03;13.73;;;26.00;75.80;;;;;;5023491;28;20479;-78
2023/08/20 06:49:17;;;;;;;17.83;11.43;;;25.90;76.00;;;;;;5023031;28;20551;-78
2023/08/20 06:51:45;;;;;;;14.70;11.53;;;25.90;76.20;;;;;;5022896;28;20480;-80
2023/08/20 06:54:13;;;;;;;14.40;11.20;;;25.90;76.30;;;;;;5021417;28;20460;-79
2023/08/20 06:56:43;;;;;;;13.37;11.30;;;25.80;76.50;;;;;;5019045;28;20458;-80
2023/08/20 06:59:11;;;;;;;15.43;11.50;;;25.80;76.70;;;;;;5019401;28;20542;-79
2023/08/20 07:01:39;;;;;;;16.43;12.23;;;25.80;76.80;;;;;;5020335;28;21032;-80
2023/08/20 07:04:08;;;;;;;15.47;13.60;;;25.80;76.90;;;;;;5020166;28;20460;-80
2023/08/20 07:06:36;;;;;;;13.97;12.30;;;25.80;77.10;;;;;;5019741;28;20449;-78
2023/08/20 07:09:04;;;;;;;15.77;12.50;;;25.80;77.30;;;;;;5021818;28;20539;-79
2023/08/20 07:11:32;;;;;;;17.30;13.60;;;25.80;77.40;;;;;;5024729;28;20478;-78
2023/08/20 07:14:02;;;;;;;14.97;12.40;;;25.90;77.50;;;;;;5022296;28;20463;-79
2023/08/20 07:16:30;;;;;;;21.50;13.10;;;25.90;77.60;;;;;;5028699;28;20465;-79
2023/08/20 07:18:58;;;;;;;18.40;11.90;;;25.90;77.70;;;;;;5023528;28;20470;-79
2023/08/20 07:21:26;;;;;;;15.50;11.83;;;26.00;77.80;;;;;;5018212;28;20817;-80
2023/08/20 07:23:54;;;;;;;18.63;10.43;;;26.00;77.80;;;;;;5025096;28;20466;-78
2023/08/20 07:26:23;;;;;;;12.13;10.83;;;26.10;77.80;;;;;;5024411;28;20904;-76
2023/08/20 07:29:00;;;;;;;13.47;10.77;;;26.10;77.80;;;;;;5022110;28;20498;-79
2023/08/20 07:31:31;;;;;;;14.50;11.07;;;26.10;77.70;;;;;;5024363;28;21105;-80
2023/08/20 07:34:00;;;;;;;15.00;10.97;;;26.20;77.60;;;;;;5021590;28;20448;-79
2023/08/20 07:36:32;;;;;;;15.43;9.60;;;26.20;77.60;;;;;;5021549;28;20455;-77
2023/08/20 07:39:01;;;;;;;15.70;11.00;;;26.20;77.60;;;;;;5021807;28;20460;-79
2023/08/20 07:41:31;;;;;;;16.87;11.07;;;26.30;77.50;;;;;;5019837;28;20459;-79
2023/08/20 07:43:59;;;;;;;14.57;10.33;;;26.30;77.50;;;;;;5024217;28;20487;-80
2023/08/20 07:46:30;;;;;;;15.13;10.43;;;26.30;77.50;;;;;;5019516;28;20462;-78
2023/08/20 07:48:58;;;;;;;13.77;10.93;;;26.30;77.40;;;;;;5020966;28;20551;-77
2023/08/20 07:51:26;;;;;;;13.50;10.23;;;26.40;77.40;;;;;;5019633;28;20918;-79
2023/08/20 07:53:58;;;;;;;16.10;10.40;;;26.40;77.50;;;;;;5024828;28;20998;-78
2023/08/20 07:56:27;;;;;;;14.37;10.70;;;26.40;77.50;;;;;;5027511;28;20494;-81
2023/08/20 07:58:55;;;;;;;14.63;11.60;;;26.40;77.40;;;;;;5028223;28;20999;-79
2023/08/20 08:01:24;;;;;;;12.63;10.40;;;26.40;77.40;;;;;;5031452;28;20543;-80
2023/08/20 08:03:53;;;;;;;13.97;9.70;;;26.40;77.40;;;;;;5024288;28;20478;-79
2023/08/20 08:06:23;;;;;;;16.77;11.63;;;26.50;77.40;;;;;;5028951;28;20477;-80
2023/08/20 08:08:51;;;;;;;16.40;11.03;;;26.50;77.40;;;;;;5028197;28;20459;-79
2023/08/20 08:11:20;;;;;;;15.90;10.87;;;26.50;77.40;;;;;;5029595;28;21028;-80
2023/08/20 08:13:48;;;;;;;15.33;10.67;;;26.50;77.50;;;;;;5026941;28;20456;-81
2023/08/20 08:16:16;;;;;;;13.63;9.87;;;26.50;77.50;;;;;;5027664;28;20502;-80
2023/08/20 08:18:44;;;;;;;14.93;10.60;;;26.50;77.50;;;;;;5030115;28;20447;-79
2023/08/20 08:21:14;;;;;;;12.70;11.33;;;26.50;77.50;;;;;;5033612;28;20940;-79
2023/08/20 08:23:42;;;;;;;17.23;11.17;;;26.50;77.50;;;;;;5025682;28;20470;-79
2023/08/20 08:26:10;;;;;;;15.40;10.67;;;26.60;77.60;;;;;;5024380;28;20983;-80
2023/08/20 08:28:37;;;;;;;16.50;11.07;;;26.60;77.40;;;;;;5027747;28;20462;-81
2023/08/20 08:31:11;;;;;;;14.40;11.53;;;26.70;77.40;;;;;;5031899;28;20578;-81
2023/08/20 08:33:39;;;;;;;13.80;11.27;;;26.70;77.40;;;;;;5034727;28;20454;-80
2023/08/20 08:36:07;;;;;;;20.83;10.00;;;26.80;77.40;;;;;;5033097;28;20458;-78
2023/08/20 08:38:36;;;;;;;13.93;9.73;;;26.80;77.40;;;;;;5031515;28;20889;-79
2023/08/20 08:41:08;;;;;;;16.63;10.77;;;26.80;77.40;;;;;;5032096;28;20474;-79
2023/08/20 08:43:38;;;;;;;15.40;10.60;;;26.80;77.20;;;;;;5025018;28;20474;-79
2023/08/20 08:46:08;;;;;;;12.80;9.87;;;26.80;77.20;;;;;;5025554;28;20495;-78
2023/08/20 08:48:36;;;;;;;17.40;10.80;;;26.80;77.10;;;;;;5031620;28;20514;-79
2023/08/20 08:51:06;;;;;;;14.63;10.73;;;26.90;77.20;;;;;;5038759;28;20449;-79
2023/08/20 08:53:36;;;;;;;15.80;10.07;;;26.90;77.20;;;;;;5038461;28;20518;-79
2023/08/20 08:56:06;;;;;;;12.53;9.30;;;27.00;77.10;;;;;;5028532;28;20502;-79
2023/08/20 08:58:34;;;;;;;12.80;9.10;;;27.00;76.90;;;;;;5032442;28;20561;-78
2023/08/20 09:01:03;;;;;;;13.13;9.80;;;27.00;76.60;;;;;;5025628;28;20559;-77
2023/08/20 09:03:32;;;;;;;17.83;10.33;;;27.10;76.50;;;;;;5026722;28;20455;-78
2023/08/20 09:06:03;;;;;;;18.53;9.97;;;27.10;76.30;;;;;;5022125;28;20550;-78
2023/08/20 09:08:31;;;;;;;12.23;10.30;;;27.20;76.00;;;;;;5028731;28;21679;-78
2023/08/20 09:11:03;;;;;;;13.53;9.00;;;27.20;75.90;;;;;;5028426;28;20494;-78
2023/08/20 09:13:34;;;;;;;16.10;9.90;;;27.20;75.70;;;;;;5026901;28;20480;-78
2023/08/20 09:16:06;;;;;;;18.43;10.53;;;27.30;75.50;;;;;;5020964;28;20487;-78
2023/08/20 09:18:40;;;;;;;14.20;9.47;;;27.40;75.50;;;;;;5024025;28;20464;-78
2023/08/20 09:21:09;;;;;;;20.23;10.30;;;27.40;75.30;;;;;;5025691;28;20493;-77
2023/08/20 09:23:38;;;;;;;14.87;10.00;;;27.40;75.20;;;;;;5039914;28;20466;-78
2023/08/20 09:26:09;;;;;;;12.00;9.73;;;27.50;75.10;;;;;;5022653;28;20954;-78
2023/08/20 09:28:42;;;;;;;14.30;10.70;;;27.50;75.00;;;;;;5028811;28;21371;-78
2023/08/20 09:31:11;;;;;;;15.10;10.43;;;27.60;74.80;;;;;;5026527;28;20587;-78
2023/08/20 09:33:50;;;;;;;12.87;9.00;;;27.60;74.70;;;;;;5038288;28;20543;-78
2023/08/20 09:36:30;;;;;;;15.53;10.10;;;27.70;74.50;;;;;;5022564;28;20953;-81
2023/08/20 09:39:00;;;;;;;11.60;9.13;;;27.70;74.50;;;;;;5028354;28;20463;-80
2023/08/20 09:41:30;;;;;;;12.63;9.60;;;27.80;74.40;;;;;;5025368;28;21131;-81
2023/08/20 09:43:59;;;;;;;15.70;10.53;;;27.80;74.30;;;;;;5024587;28;20456;-81
2023/08/20 09:46:28;;;;;;;17.80;11.20;;;27.90;74.20;;;;;;5027019;28;20460;-81
2023/08/20 09:48:57;;;;;;;11.43;9.23;;;28.00;74.20;;;;;;5032268;28;20447;-81
2023/08/20 09:51:27;;;;;;;18.60;11.60;;;28.00;74.10;;;;;;5031173;28;21439;-81
2023/08/20 09:54:08;;;;;;;16.10;10.80;;;28.10;73.90;;;;;;5027113;28;20506;-80
2023/08/20 09:56:40;;;;;;;19.10;10.10;;;28.10;73.60;;;;;;5031022;28;20447;-81
2023/08/20 09:59:08;;;;;;;16.07;10.80;;;28.10;73.40;;;;;;5033355;28;20456;-81
2023/08/20 10:01:36;;;;;;;14.77;10.30;;;28.20;73.30;;;;;;5031046;28;20473;-81
2023/08/20 10:04:05;;;;;;;13.03;10.10;;;28.20;73.10;;;;;;5022303;28;20502;-81
2023/08/20 10:06:34;;;;;;;11.17;9.40;;;28.20;72.90;;;;;;5024500;28;20455;-81
2023/08/20 10:09:03;;;;;;;15.80;11.10;;;28.20;72.90;;;;;;5027154;28;20455;-81
2023/08/20 10:11:33;;;;;;;13.17;10.03;;;28.20;72.80;;;;;;5022301;28;20465;-81
2023/08/20 10:14:02;;;;;;;21.73;9.80;;;28.20;72.70;;;;;;5018892;28;20499;-81
2023/08/20 10:16:33;;;;;;;16.43;9.77;;;28.20;72.70;;;;;;5028176;28;20452;-81
2023/08/20 10:19:03;;;;;;;16.50;10.90;;;28.10;72.50;;;;;;5029156;28;20467;-81
2023/08/20 10:21:32;;;;;;;16.63;9.87;;;28.20;72.40;;;;;;5018389;28;20621;-81
2023/08/20 10:24:04;;;;;;;17.87;10.23;;;28.20;72.30;;;;;;5029849;28;20656;-81
2023/08/20 10:26:35;;;;;;;13.37;9.90;;;28.30;72.10;;;;;;5026453;28;20462;-79
2023/08/20 10:29:39;;;;;;;18.40;10.97;;;28.30;72.00;;;;;;5026943;28;20567;-80
2023/08/20 10:32:09;;;;;;;14.10;9.60;;;28.30;71.90;;;;;;5019891;28;20494;-80
2023/08/20 10:43:03;;;;;;;16.90;9.80;;;28.50;71.90;;;;;;5024176;28;20446;-81
2023/08/20 10:45:45;;;;;;;12.43;10.50;;;28.40;71.80;;;;;;5016967;28;20460;-80
2023/08/20 10:48:14;;;;;;;14.73;10.27;;;28.40;71.60;;;;;;5024926;28;20459;-82
2023/08/20 10:50:43;;;;;;;16.83;9.60;;;28.50;71.60;;;;;;5026401;28;20452;-81
2023/08/20 10:53:12;;;;;;;16.13;9.70;;;28.50;71.70;;;;;;5024115;28;20834;-78
2023/08/20 10:55:49;;;;;;;12.93;8.67;;;28.60;71.60;;;;;;5022767;28;20459;-76
2023/08/20 10:58:18;;;;;;;12.27;9.50;;;28.60;71.60;;;;;;5022296;28;20546;-82
2023/08/20 11:01:15;;;;;;;16.70;10.43;;;28.60;71.60;;;;;;5021343;28;21398;-77
2023/08/20 11:03:44;;;;;;;13.90;10.17;;;28.70;71.50;;;;;;5023334;28;20465;-79
2023/08/20 11:06:12;;;;;;;13.30;9.73;;;28.70;71.30;;;;;;5018441;28;20463;-80
2023/08/20 11:08:41;;;;;;;13.90;9.80;;;28.60;71.30;;;;;;5024646;28;20562;-80
2023/08/20 11:11:10;;;;;;;13.77;10.10;;;28.70;71.40;;;;;;5022787;28;20537;-76
2023/08/20 11:13:39;;;;;;;14.67;10.07;;;28.70;71.40;;;;;;5016003;28;20474;-77
2023/08/20 11:16:08;;;;;;;15.07;11.23;;;28.80;71.50;;;;;;5015762;28;20460;-78
2023/08/20 11:18:36;;;;;;;13.50;10.07;;;28.80;71.30;;;;;;5018219;28;20475;-77
2023/08/20 11:21:05;;;;;;;14.30;9.53;;;28.80;71.30;;;;;;5021323;28;20461;-78
2023/08/20 11:23:33;;;;;;;13.03;9.60;;;28.90;71.40;;;;;;5020487;28;20483;-78
2023/08/20 11:26:02;;;;;;;13.57;9.70;;;28.90;71.30;;;;;;5020533;28;20529;-77
2023/08/20 11:28:30;;;;;;;18.83;9.43;;;28.90;71.30;;;;;;5016217;28;20467;-77
2023/08/20 11:30:58;;;;;;;14.93;9.30;;;28.90;71.10;;;;;;5018394;28;20499;-77
2023/08/20 11:33:27;;;;;;;14.93;9.83;;;29.00;70.90;;;;;;5018857;28;20488;-77
2023/08/20 11:35:55;;;;;;;12.70;9.07;;;29.00;70.90;;;;;;5035693;28;20588;-78
2023/08/20 11:38:25;;;;;;;16.70;9.30;;;29.00;70.80;;;;;;5025903;28;20575;-78
2023/08/20 11:40:53;;;;;;;14.73;8.10;;;29.10;70.50;;;;;;5027002;28;20444;-77
2023/08/20 11:43:22;;;;;;;16.07;9.67;;;29.20;70.40;;;;;;5019210;28;20448;-78
2023/08/20 11:54:19;;;;;;;11.50;7.73;;;29.30;69.90;;;;;;5013267;28;20543;-77
2023/08/20 11:56:49;;;;;;;11.40;8.80;;;29.30;69.70;;;;;;5015233;28;20460;-78
2023/08/20 11:59:18;;;;;;;12.07;7.87;;;29.40;69.40;;;;;;5016345;28;20467;-78
2023/08/20 12:01:51;;;;;;;10.53;8.20;;;29.50;69.30;;;;;;5020939;28;20474;-77
2023/08/20 12:04:19;;;;;;;16.17;9.50;;;29.50;69.30;;;;;;5015166;28;20553;-78
2023/08/20 12:07:02;;;;;;;11.30;8.77;;;29.50;69.30;;;;;;5017789;28;20463;-79
2023/08/20 12:09:32;;;;;;;12.17;8.80;;;29.60;69.10;;;;;;5020709;28;20985;-78
2023/08/20 12:12:01;;;;;;;13.10;9.30;;;29.60;68.90;;;;;;5016984;28;21263;-77
2023/08/20 12:14:29;;;;;;;16.53;9.47;;;29.60;68.70;;;;;;5017559;28;21050;-78
2023/08/20 12:16:58;;;;;;;12.67;9.17;;;29.60;68.90;;;;;;5016358;28;20449;-78
2023/08/20 12:19:26;;;;;;;12.70;8.83;;;29.70;68.80;;;;;;5023893;28;20456;-78
2023/08/20 12:34:10;;;;;;;13.17;8.50;;;29.70;68.40;;;;;;5019755;28;20455;-79
2023/08/20 12:36:39;;;;;;;14.03;9.40;;;29.80;68.30;;;;;;5022219;28;20467;-76
2023/08/20 12:39:07;;;;;;;12.13;8.47;;;29.80;68.10;;;;;;5027237;28;20463;-78
2023/08/20 12:41:36;;;;;;;11.23;8.70;;;29.80;68.00;;;;;;5029285;28;20548;-78
2023/08/20 12:44:05;;;;;;;16.10;8.63;;;29.90;67.80;;;;;;5024316;28;20876;-79
2023/08/20 12:46:33;;;;;;;13.80;7.90;;;29.90;67.50;;;;;;5030448;28;20918;-77
2023/08/20 12:49:01;;;;;;;14.70;8.90;;;29.90;67.20;;;;;;5026649;28;20459;-77
2023/08/20 13:04:10;;;;;;;20.53;8.77;;;30.10;67.10;;;;;;5025197;28;20505;-79
2023/08/20 13:06:39;;;;;;;17.43;9.27;;;30.10;67.10;;;;;;5028037;28;20547;-79
2023/08/20 13:09:09;;;;;;;12.03;7.27;;;30.20;67.00;;;;;;5025501;28;20451;-79
2023/08/20 13:11:39;;;;;;;14.17;7.80;;;30.20;66.80;;;;;;5052329;28;20437;-79
2023/08/20 13:14:08;;;;;;;12.50;8.33;;;30.30;66.60;;;;;;5030207;28;20503;-80
2023/08/20 13:16:37;;;;;;;10.17;7.90;;;30.40;66.30;;;;;;5028296;28;20451;-79
2023/08/20 13:19:05;;;;;;;14.43;8.20;;;30.40;65.90;;;;;;5030662;28;20452;-78
2023/08/20 13:21:35;;;;;;;11.43;7.53;;;30.40;65.50;;;;;;5027763;28;20495;-79
2023/08/20 13:24:04;;;;;;;9.90;7.20;;;30.40;65.20;;;;;;5024138;28;20461;-79
2023/08/20 13:26:32;;;;;;;12.30;7.03;;;30.40;65.00;;;;;;5023944;28;20551;-79